Time;durP1;ratioP1;P1;durP2;ratioP2;P2;SDS_P1;SDS_P2;PMS_P1;PMS_P2;Temp;Humidity;BMP_temperature;BMP_pressure;BME280_temperature;BME280_humidity;BME280_pressure;Samples;Min_cycle;Max_cycle;Signal;HPM_P1;HPM_P2
2021/11/24 00:02:17;;;;;;;12.07;7.27;;;8.10;97.00;;;;;;4957559;28;20031;-71
2021/11/24 00:04:43;;;;;;;10.40;6.93;;;8.10;97.00;;;;;;4977498;28;20050;-71
2021/11/24 00:07:09;;;;;;;11.03;7.77;;;8.10;97.00;;;;;;4973615;28;20479;-71
2021/11/24 00:09:34;;;;;;;11.03;7.73;;;8.10;97.00;;;;;;4973457;28;20033;-71
2021/11/24 00:12:03;;;;;;;14.30;8.33;;;8.10;97.00;;;;;;4974433;28;20106;-71
2021/11/24 00:14:29;;;;;;;11.57;7.33;;;8.10;97.00;;;;;;4984945;28;20375;-71
2021/11/24 00:16:55;;;;;;;9.57;6.57;;;8.00;96.90;;;;;;5009058;28;20042;-71
2021/11/24 00:19:20;;;;;;;10.03;6.60;;;8.10;96.90;;;;;;4987597;28;20037;-71
2021/11/24 00:21:46;;;;;;;9.67;6.90;;;8.10;96.90;;;;;;4976519;28;20442;-71
2021/11/24 00:24:12;;;;;;;10.17;6.47;;;8.10;96.90;;;;;;4974736;28;20110;-71
2021/11/24 00:26:37;;;;;;;32.40;7.10;;;8.00;96.80;;;;;;4973112;28;20035;-71
2021/11/24 00:29:03;;;;;;;39.40;7.43;;;8.00;96.80;;;;;;4974401;28;20023;-71
2021/11/24 00:31:29;;;;;;;32.73;7.67;;;8.00;96.70;;;;;;4974398;28;20372;-71
2021/11/24 00:33:55;;;;;;;14.27;8.93;;;7.90;96.70;;;;;;4974343;28;20106;-71
2021/11/24 00:36:20;;;;;;;15.83;8.63;;;7.90;96.80;;;;;;4973044;28;20467;-71
2021/11/24 00:38:46;;;;;;;14.33;8.67;;;7.80;96.80;;;;;;4973120;28;20041;-71
2021/11/24 00:41:11;;;;;;;14.10;8.53;;;7.80;96.80;;;;;;4975253;28;20090;-71
2021/11/24 00:43:38;;;;;;;13.13;8.27;;;7.70;96.80;;;;;;4956942;28;20387;-71
2021/11/24 00:46:03;;;;;;;12.93;8.67;;;7.70;96.80;;;;;;4972885;28;20030;-71
2021/11/24 00:48:29;;;;;;;13.47;8.67;;;7.60;96.70;;;;;;4975383;28;20031;-71
2021/11/24 00:50:55;;;;;;;13.00;8.87;;;7.60;96.70;;;;;;4992090;28;20030;-71
2021/11/24 00:53:21;;;;;;;15.13;9.13;;;7.50;96.70;;;;;;5008688;28;20101;-71
2021/11/24 00:55:46;;;;;;;13.90;9.37;;;7.60;96.70;;;;;;4992234;28;20046;-71
2021/11/24 00:58:12;;;;;;;12.67;9.03;;;7.50;96.60;;;;;;4993564;28;20031;-71
2021/11/24 01:00:38;;;;;;;13.63;9.83;;;7.40;96.60;;;;;;4994624;28;20043;-71
2021/11/24 01:03:03;;;;;;;13.27;8.83;;;7.40;96.60;;;;;;4956860;28;20430;-71
2021/11/24 01:05:30;;;;;;;13.83;9.17;;;7.30;96.90;;;;;;4972937;28;20034;-71
2021/11/24 01:07:56;;;;;;;12.30;9.13;;;7.30;96.70;;;;;;4972726;28;20058;-71
2021/11/24 01:10:21;;;;;;;17.17;9.60;;;7.30;96.70;;;;;;4974114;28;20077;-71
2021/11/24 01:12:47;;;;;;;20.43;9.30;;;7.30;96.70;;;;;;4974024;28;20027;-71
2021/11/24 01:15:14;;;;;;;21.13;9.57;;;7.30;96.80;;;;;;4980537;28;20222;-71
2021/11/24 01:17:40;;;;;;;20.80;9.23;;;7.30;96.80;;;;;;5008226;28;20065;-71
2021/11/24 01:20:07;;;;;;;20.70;9.00;;;7.30;96.80;;;;;;4993429;28;20415;-71
2021/11/24 01:22:33;;;;;;;19.23;8.87;;;7.30;96.90;;;;;;4993276;28;20053;-71
2021/11/24 01:24:59;;;;;;;18.77;8.37;;;7.30;96.90;;;;;;4993341;28;20026;-71
2021/11/24 01:27:25;;;;;;;34.97;8.83;;;7.20;96.90;;;;;;4993230;28;20053;-71
2021/11/24 01:29:50;;;;;;;13.87;7.93;;;7.20;96.90;;;;;;4993272;28;20081;-71
2021/11/24 01:32:16;;;;;;;19.47;8.47;;;7.20;96.90;;;;;;4991825;28;20030;-71
2021/11/24 01:34:41;;;;;;;17.03;8.93;;;7.20;96.90;;;;;;5008373;28;20129;-71
2021/11/24 01:37:07;;;;;;;19.07;8.93;;;7.20;96.90;;;;;;5008219;28;20049;-71
2021/11/24 01:39:33;;;;;;;13.90;8.93;;;7.20;96.90;;;;;;5008854;28;20061;-71
2021/11/24 01:41:59;;;;;;;19.40;7.70;;;7.10;96.90;;;;;;4995911;28;20029;-71
2021/11/24 01:44:27;;;;;;;13.13;7.70;;;7.10;97.00;;;;;;5012035;28;20034;-71
2021/11/24 01:46:56;;;;;;;14.77;8.30;;;7.10;97.00;;;;;;4996554;28;20026;-71
2021/11/24 01:49:23;;;;;;;10.57;7.40;;;7.10;96.90;;;;;;4994972;28;20030;-71
2021/11/24 01:51:50;;;;;;;10.60;7.03;;;7.10;96.90;;;;;;5011669;28;20065;-71
2021/11/24 01:54:16;;;;;;;9.87;6.90;;;7.10;97.00;;;;;;4996580;28;20035;-71
2021/11/24 01:56:43;;;;;;;9.27;6.53;;;7.10;97.00;;;;;;5011272;28;20050;-71
2021/11/24 01:59:13;;;;;;;9.60;6.63;;;7.10;97.00;;;;;;4996412;28;20034;-71
2021/11/24 02:01:41;;;;;;;9.53;6.10;;;7.10;97.00;;;;;;4995192;28;20356;-71
2021/11/24 02:04:08;;;;;;;9.50;6.37;;;7.10;97.00;;;;;;5010991;28;20026;-73
2021/11/24 02:06:34;;;;;;;10.00;6.63;;;7.10;97.10;;;;;;4996324;28;20034;-74
2021/11/24 02:08:59;;;;;;;10.03;6.90;;;7.10;97.00;;;;;;4980802;28;20489;-74
2021/11/24 02:11:26;;;;;;;10.93;7.57;;;7.00;97.00;;;;;;4975738;28;20438;-75
2021/11/24 02:13:52;;;;;;;9.93;6.87;;;7.10;97.00;;;;;;4975551;28;20022;-75
2021/11/24 02:16:18;;;;;;;10.37;7.20;;;7.10;97.00;;;;;;4975604;28;20432;-74
2021/11/24 02:18:43;;;;;;;9.33;6.10;;;7.10;97.00;;;;;;4976435;28;20039;-74
2021/11/24 02:21:11;;;;;;;10.20;7.17;;;7.10;97.10;;;;;;4976585;28;20372;-74
2021/11/24 02:23:36;;;;;;;10.23;6.90;;;7.00;97.00;;;;;;4976619;28;20372;-74
2021/11/24 02:26:02;;;;;;;9.40;6.27;;;7.10;97.10;;;;;;4976441;28;20122;-74
2021/11/24 02:28:28;;;;;;;9.30;6.47;;;7.00;97.10;;;;;;4975084;28;20061;-74
2021/11/24 02:30:54;;;;;;;10.17;7.10;;;7.00;97.10;;;;;;4976364;28;20035;-74
2021/11/24 02:33:20;;;;;;;10.40;6.73;;;7.10;97.10;;;;;;4976421;28;20042;-74
2021/11/24 02:35:46;;;;;;;11.90;7.10;;;7.00;97.10;;;;;;4975124;28;20042;-74
2021/11/24 02:38:18;;;;;;;11.77;6.93;;;7.10;97.20;;;;;;4975220;28;20041;-74
2021/11/24 02:40:44;;;;;;;10.23;7.27;;;7.00;97.10;;;;;;4976206;28;20117;-74
2021/11/24 02:43:10;;;;;;;10.80;7.33;;;7.10;97.10;;;;;;4976314;28;20125;-74
2021/11/24 02:45:36;;;;;;;11.70;7.40;;;7.00;97.20;;;;;;4974981;28;20027;-74
2021/11/24 02:48:03;;;;;;;10.77;6.70;;;7.00;97.20;;;;;;4958608;28;20026;-74
2021/11/24 02:50:29;;;;;;;10.77;7.00;;;7.00;97.20;;;;;;4975879;28;20030;-71
2021/11/24 02:52:55;;;;;;;11.67;7.23;;;7.00;97.20;;;;;;4975950;28;20101;-71
2021/11/24 02:55:21;;;;;;;10.43;7.07;;;7.00;97.20;;;;;;4974525;28;20178;-71
2021/11/24 02:57:49;;;;;;;10.53;7.63;;;7.00;97.30;;;;;;4975898;28;20590;-71
2021/11/24 03:00:18;;;;;;;9.83;6.70;;;7.00;97.30;;;;;;4976931;28;20114;-71
2021/11/24 03:02:45;;;;;;;10.27;7.23;;;7.00;97.20;;;;;;4975711;28;20035;-71
2021/11/24 03:05:11;;;;;;;10.30;7.27;;;7.00;97.20;;;;;;4958326;28;20178;-70
2021/11/24 03:07:38;;;;;;;10.97;7.23;;;7.00;97.10;;;;;;4975638;28;20035;-71
2021/11/24 03:10:05;;;;;;;10.10;7.37;;;7.00;97.10;;;;;;4975669;28;20470;-70
2021/11/24 03:12:32;;;;;;;11.30;8.00;;;7.00;97.10;;;;;;4975615;28;20109;-71
2021/11/24 03:14:58;;;;;;;11.47;7.70;;;7.00;97.10;;;;;;4958311;28;20508;-71
2021/11/24 03:17:23;;;;;;;11.23;7.40;;;6.90;97.10;;;;;;4976590;28;20062;-71
2021/11/24 03:19:49;;;;;;;11.67;8.00;;;6.90;97.40;;;;;;4974259;28;20070;-71
2021/11/24 03:22:22;;;;;;;13.23;7.93;;;6.90;97.20;;;;;;4975401;28;20049;-71
2021/11/24 03:24:55;;;;;;;11.63;8.37;;;6.90;97.20;;;;;;4974207;28;20031;-71
2021/11/24 03:27:34;;;;;;;10.55;8.02;;;6.90;97.20;;;;;;4975295;28;20097;-70
2021/11/24 03:30:04;;;;;;;12.77;9.03;;;6.90;97.20;;;;;;4975376;28;20055;-70
2021/11/24 03:32:30;;;;;;;12.17;8.40;;;6.90;97.20;;;;;;4975201;28;20073;-71
2021/11/24 03:34:56;;;;;;;11.93;8.60;;;6.80;97.20;;;;;;4975153;28;20034;-70
2021/11/24 03:37:22;;;;;;;12.60;8.60;;;6.80;97.20;;;;;;4975129;28;20031;-71
2021/11/24 03:39:49;;;;;;;12.33;8.07;;;6.80;97.20;;;;;;4975134;28;20077;-70
2021/11/24 03:42:15;;;;;;;12.73;8.80;;;6.80;97.20;;;;;;4974923;28;20031;-70
2021/11/24 03:44:42;;;;;;;12.70;9.10;;;6.70;97.20;;;;;;4974962;28;20027;-71
2021/11/24 03:47:08;;;;;;;13.73;9.23;;;6.70;97.20;;;;;;4975042;28;20023;-71
2021/11/24 03:49:33;;;;;;;15.77;9.47;;;6.80;97.20;;;;;;4974861;28;20027;-70
2021/11/24 03:51:59;;;;;;;15.50;9.93;;;6.70;97.10;;;;;;4973880;28;20031;-71
2021/11/24 03:54:25;;;;;;;42.33;10.17;;;6.70;97.10;;;;;;4975933;28;20038;-70
2021/11/24 03:56:51;;;;;;;41.50;9.30;;;6.70;97.10;;;;;;4974670;28;20050;-71
2021/11/24 03:59:17;;;;;;;27.23;9.60;;;6.60;97.10;;;;;;4973717;28;20035;-71
2021/11/24 04:01:42;;;;;;;20.53;9.37;;;6.60;97.20;;;;;;4974747;28;20165;-70
2021/11/24 04:04:08;;;;;;;109.30;11.67;;;6.60;97.20;;;;;;4973374;28;20069;-71
2021/11/24 04:06:34;;;;;;;58.53;9.33;;;6.50;97.20;;;;;;4973572;28;20474;-71
2021/11/24 04:09:00;;;;;;;70.87;9.17;;;6.60;97.30;;;;;;4974647;28;20034;-71
2021/11/24 04:11:27;;;;;;;131.63;9.30;;;6.50;97.30;;;;;;4974462;28;20027;-70
2021/11/24 04:13:52;;;;;;;82.57;10.20;;;6.50;97.40;;;;;;4974731;28;20031;-71
2021/11/24 04:16:18;;;;;;;37.47;8.80;;;6.50;97.40;;;;;;4973451;28;20102;-70
2021/11/24 04:18:44;;;;;;;37.70;8.97;;;6.50;97.40;;;;;;4973383;28;20045;-70
2021/11/24 04:21:09;;;;;;;48.53;8.13;;;6.50;97.50;;;;;;4957064;28;20119;-70
2021/11/24 04:23:35;;;;;;;29.00;8.47;;;6.50;97.50;;;;;;4974652;28;20031;-71
2021/11/24 04:26:01;;;;;;;33.17;8.73;;;6.50;97.50;;;;;;4974567;28;20451;-70
2021/11/24 04:28:27;;;;;;;40.67;9.23;;;6.50;97.50;;;;;;4975414;28;20078;-70
2021/11/24 04:30:52;;;;;;;50.37;8.70;;;6.50;97.50;;;;;;4973440;28;20332;-71
2021/11/24 04:33:18;;;;;;;79.77;10.00;;;6.60;97.60;;;;;;4974369;28;20387;-71
2021/11/24 04:35:44;;;;;;;41.87;8.80;;;6.60;97.60;;;;;;4973623;28;20031;-70
2021/11/24 04:38:10;;;;;;;66.73;9.43;;;6.50;97.60;;;;;;4974551;28;20566;-70
2021/11/24 04:40:35;;;;;;;53.60;8.70;;;6.60;97.60;;;;;;4974320;28;20073;-71
2021/11/24 04:43:04;;;;;;;88.97;9.40;;;6.50;97.50;;;;;;4973138;28;20035;-70
2021/11/24 04:45:30;;;;;;;56.23;8.20;;;6.50;97.60;;;;;;4975452;28;20035;-70
2021/11/24 04:47:56;;;;;;;52.87;8.47;;;6.50;97.60;;;;;;4973017;28;20031;-70
2021/11/24 04:50:22;;;;;;;69.60;8.67;;;6.60;97.60;;;;;;4974259;28;20027;-70
2021/11/24 04:52:47;;;;;;;49.47;8.53;;;6.50;97.60;;;;;;4956930;28;20412;-70
2021/11/24 04:55:14;;;;;;;47.67;8.43;;;6.60;97.60;;;;;;4973995;28;20054;-70
2021/11/24 04:57:40;;;;;;;36.93;8.83;;;6.50;97.60;;;;;;4974229;28;20035;-70
2021/11/24 05:00:11;;;;;;;60.83;9.37;;;6.60;97.60;;;;;;4972918;28;20034;-70
2021/11/24 05:02:36;;;;;;;72.97;8.83;;;6.50;97.80;;;;;;4975157;28;20111;-70
2021/11/24 05:05:03;;;;;;;66.97;9.50;;;6.50;97.60;;;;;;4974181;28;20114;-70
2021/11/24 05:07:28;;;;;;;63.43;9.37;;;6.50;97.60;;;;;;4972770;28;20039;-70
2021/11/24 05:09:54;;;;;;;32.43;10.10;;;6.50;97.70;;;;;;4972838;28;20023;-70
2021/11/24 05:12:20;;;;;;;56.53;9.90;;;6.50;97.70;;;;;;4972986;28;20065;-70
2021/11/24 05:14:48;;;;;;;59.20;11.07;;;6.40;97.60;;;;;;4974943;28;20027;-70
2021/11/24 05:17:16;;;;;;;39.53;10.60;;;6.40;97.70;;;;;;4977679;28;20045;-70
2021/11/24 05:19:47;;;;;;;67.37;11.07;;;6.40;97.70;;;;;;4977708;28;20483;-70
2021/11/24 05:22:13;;;;;;;42.50;11.13;;;6.50;97.80;;;;;;4993424;28;20035;-69
2021/11/24 05:24:38;;;;;;;92.87;12.43;;;6.60;97.80;;;;;;4994506;28;20093;-70
2021/11/24 05:27:04;;;;;;;73.37;11.07;;;6.50;97.80;;;;;;4995287;28;20565;-70
2021/11/24 05:29:30;;;;;;;66.07;11.70;;;6.50;97.80;;;;;;4994842;28;20027;-70
2021/11/24 05:31:56;;;;;;;74.63;12.20;;;6.40;97.80;;;;;;4997007;28;20022;-71
2021/11/24 05:34:22;;;;;;;54.77;10.53;;;6.50;97.90;;;;;;4979541;28;20027;-70
2021/11/24 05:36:48;;;;;;;54.77;11.00;;;6.50;97.90;;;;;;4996297;28;20104;-74
2021/11/24 05:39:14;;;;;;;78.20;12.03;;;6.50;97.90;;;;;;4980942;28;20418;-74
2021/11/24 05:41:41;;;;;;;54.03;10.40;;;6.50;97.90;;;;;;4977161;28;20027;-74
2021/11/24 05:44:23;;;;;;;52.03;10.97;;;6.50;97.80;;;;;;4977172;28;20026;-73
2021/11/24 05:46:57;;;;;;;45.73;10.97;;;6.50;97.80;;;;;;4977187;28;20023;-73
2021/11/24 05:49:24;;;;;;;49.22;11.10;;;6.50;97.90;;;;;;4977155;28;20035;-73
2021/11/24 05:51:50;;;;;;;53.83;10.60;;;6.50;97.90;;;;;;4975759;28;20379;-73
2021/11/24 05:54:16;;;;;;;43.60;10.63;;;6.50;97.90;;;;;;4977137;28;20023;-73
2021/11/24 05:56:42;;;;;;;41.33;10.30;;;6.50;97.90;;;;;;4969047;28;20406;-74
2021/11/24 05:59:09;;;;;;;42.53;10.17;;;6.60;97.90;;;;;;4990590;28;20445;-74
2021/11/24 06:01:36;;;;;;;45.10;10.37;;;6.60;98.00;;;;;;4996151;28;20031;-74
2021/11/24 06:04:03;;;;;;;49.73;9.80;;;6.60;98.00;;;;;;4996117;28;20105;-74
2021/11/24 06:06:29;;;;;;;48.87;10.13;;;6.60;98.00;;;;;;4987243;28;20038;-74
2021/11/24 06:08:55;;;;;;;29.33;10.07;;;6.60;98.30;;;;;;4975554;28;20035;-74
2021/11/24 06:11:20;;;;;;;84.27;11.30;;;6.70;98.10;;;;;;4985847;28;20403;-73
2021/11/24 06:13:46;;;;;;;47.77;9.87;;;6.70;98.10;;;;;;4970230;28;20117;-73
2021/11/24 06:16:12;;;;;;;67.43;10.20;;;6.60;98.10;;;;;;4990977;28;20430;-73
2021/11/24 06:18:38;;;;;;;40.83;8.90;;;6.70;98.10;;;;;;4992838;28;20125;-73
2021/11/24 06:21:03;;;;;;;55.87;8.93;;;6.60;98.00;;;;;;4992989;28;20065;-74
2021/11/24 06:23:29;;;;;;;92.53;9.30;;;6.50;98.00;;;;;;4995105;28;20026;-74
2021/11/24 06:25:55;;;;;;;42.23;8.27;;;6.60;98.10;;;;;;4993029;28;20022;-74
2021/11/24 06:28:20;;;;;;;42.17;7.97;;;6.70;98.10;;;;;;4994710;28;20037;-74
2021/11/24 06:30:46;;;;;;;59.53;9.13;;;6.60;98.10;;;;;;4986936;28;20037;-74
2021/11/24 06:33:12;;;;;;;55.57;8.00;;;6.60;98.10;;;;;;4975135;28;20050;-73
2021/11/24 06:35:38;;;;;;;37.23;8.50;;;6.60;98.10;;;;;;4976286;28;20031;-74
2021/11/24 06:38:03;;;;;;;43.90;9.10;;;6.60;98.10;;;;;;4974955;28;20039;-74
2021/11/24 06:40:29;;;;;;;37.47;7.90;;;6.60;98.10;;;;;;4985141;28;20077;-74
2021/11/24 06:42:54;;;;;;;25.03;8.00;;;6.60;98.10;;;;;;4993590;28;20049;-70
2021/11/24 06:45:20;;;;;;;44.20;7.53;;;6.60;98.10;;;;;;4993107;28;20041;-70
2021/11/24 06:47:46;;;;;;;40.07;7.60;;;6.60;98.10;;;;;;4992747;28;20038;-70
2021/11/24 06:50:13;;;;;;;30.90;7.83;;;6.70;98.20;;;;;;4993731;28;20026;-70
2021/11/24 06:52:39;;;;;;;21.63;7.83;;;6.70;98.20;;;;;;5010696;28;20030;-70
2021/11/24 06:55:06;;;;;;;24.50;8.17;;;6.70;98.20;;;;;;4993934;28;20023;-70
2021/11/24 06:57:31;;;;;;;25.67;8.37;;;6.70;98.20;;;;;;4995210;28;20081;-71
2021/11/24 06:59:57;;;;;;;18.80;8.37;;;6.70;98.40;;;;;;4994142;28;20039;-70
2021/11/24 07:02:22;;;;;;;26.80;8.60;;;6.70;98.20;;;;;;4992632;28;20039;-70
2021/11/24 07:04:48;;;;;;;19.67;8.77;;;6.70;98.20;;;;;;5009784;28;20097;-70
2021/11/24 07:07:14;;;;;;;19.40;8.43;;;6.70;98.20;;;;;;4993293;28;20402;-74
2021/11/24 07:09:40;;;;;;;14.13;8.17;;;6.70;98.20;;;;;;4993242;28;20031;-75
2021/11/24 07:12:09;;;;;;;14.93;7.83;;;6.80;98.20;;;;;;4991804;28;20028;-74
2021/11/24 07:14:35;;;;;;;14.73;8.50;;;6.80;98.20;;;;;;4993516;28;20045;-74
2021/11/24 07:17:02;;;;;;;12.93;6.83;;;6.70;98.20;;;;;;4992541;28;20858;-74
2021/11/24 07:19:28;;;;;;;17.20;7.40;;;6.80;98.20;;;;;;4992734;28;20034;-70
2021/11/24 07:21:54;;;;;;;13.23;7.43;;;6.80;98.20;;;;;;4992531;28;20065;-70
2021/11/24 07:24:20;;;;;;;14.43;7.93;;;6.80;98.20;;;;;;4993967;28;20023;-73
2021/11/24 07:26:46;;;;;;;12.63;7.57;;;6.80;98.20;;;;;;4992731;28;20041;-75
2021/11/24 07:29:13;;;;;;;13.03;7.10;;;6.80;98.20;;;;;;4992751;28;20030;-76
2021/11/24 07:31:38;;;;;;;15.13;7.57;;;6.80;98.20;;;;;;4993613;28;20066;-75
2021/11/24 07:34:04;;;;;;;14.47;7.67;;;6.80;98.20;;;;;;4994334;28;20054;-75
2021/11/24 07:36:30;;;;;;;15.47;7.63;;;6.80;98.20;;;;;;4991618;28;20121;-70
2021/11/24 07:38:56;;;;;;;13.57;8.07;;;6.80;98.30;;;;;;4974735;28;20035;-71
2021/11/24 07:41:22;;;;;;;15.53;8.37;;;6.90;98.40;;;;;;4991496;28;20121;-75
2021/11/24 07:43:47;;;;;;;13.43;7.30;;;6.90;98.40;;;;;;4992150;28;20038;-70
2021/11/24 07:46:13;;;;;;;20.50;7.83;;;7.00;98.50;;;;;;4994466;28;20038;-71
2021/11/24 07:48:38;;;;;;;16.70;7.47;;;7.00;98.40;;;;;;4993158;28;20042;-75
2021/11/24 07:51:05;;;;;;;13.83;7.87;;;7.10;98.50;;;;;;4993186;28;20134;-74
2021/11/24 07:53:30;;;;;;;14.03;7.27;;;7.00;98.40;;;;;;4986031;28;20031;-75
2021/11/24 07:55:56;;;;;;;15.00;8.03;;;7.10;98.50;;;;;;4981264;28;20129;-70
2021/11/24 07:58:22;;;;;;;14.10;7.97;;;7.10;98.50;;;;;;4989447;28;20039;-75
2021/11/24 08:00:47;;;;;;;15.10;8.20;;;7.20;98.50;;;;;;4992787;28;20042;-70
2021/11/24 08:03:13;;;;;;;16.33;8.67;;;7.20;98.50;;;;;;4994109;28;20223;-70
2021/11/24 08:05:39;;;;;;;17.50;8.90;;;7.20;98.40;;;;;;4994075;28;20390;-70
2021/11/24 08:08:05;;;;;;;36.03;10.00;;;7.20;98.40;;;;;;4992696;28;20062;-73
2021/11/24 08:10:31;;;;;;;31.30;9.70;;;7.20;98.30;;;;;;4988402;28;20079;-74
2021/11/24 08:12:57;;;;;;;34.60;10.30;;;7.20;98.30;;;;;;4973310;28;20031;-74
2021/11/24 08:15:23;;;;;;;20.70;9.40;;;7.30;98.30;;;;;;4973327;28;20034;-74
2021/11/24 08:17:49;;;;;;;20.03;8.80;;;7.30;98.30;;;;;;4974680;28;20042;-70
2021/11/24 08:20:15;;;;;;;25.17;9.00;;;7.30;98.30;;;;;;4974495;28;20081;-73
2021/11/24 08:22:40;;;;;;;36.00;10.10;;;7.30;98.30;;;;;;4973246;28;20042;-74
2021/11/24 08:25:08;;;;;;;26.93;9.70;;;7.30;98.20;;;;;;4982634;28;20042;-74
2021/11/24 08:27:35;;;;;;;17.17;9.97;;;7.30;98.20;;;;;;4993244;28;20038;-75
2021/11/24 08:30:00;;;;;;;19.23;9.43;;;7.40;98.40;;;;;;4973226;28;20027;-74
2021/11/24 08:32:26;;;;;;;16.67;9.47;;;7.40;98.40;;;;;;4974480;28;20390;-74
2021/11/24 08:34:52;;;;;;;17.07;9.50;;;7.50;98.40;;;;;;4956935;28;20033;-72
2021/11/24 08:37:17;;;;;;;17.43;8.93;;;7.50;98.40;;;;;;4985297;28;20084;-72
2021/11/24 08:39:43;;;;;;;18.17;9.17;;;7.50;98.30;;;;;;4993554;28;20030;-72
2021/11/24 08:42:09;;;;;;;18.07;9.93;;;7.60;98.30;;;;;;4992390;28;20093;-72
2021/11/24 08:44:36;;;;;;;16.20;9.70;;;7.50;98.30;;;;;;4993735;28;20030;-72
2021/11/24 08:47:02;;;;;;;17.73;9.43;;;7.70;98.30;;;;;;5007137;28;20038;-72
2021/11/24 08:49:28;;;;;;;14.87;9.50;;;7.70;98.30;;;;;;4994409;28;20023;-73
2021/11/24 08:51:53;;;;;;;16.57;10.13;;;7.70;98.20;;;;;;4997730;28;20033;-74
2021/11/24 08:54:19;;;;;;;19.10;9.33;;;7.80;98.20;;;;;;4997687;28;20034;-72
2021/11/24 08:56:45;;;;;;;17.07;8.47;;;7.80;98.20;;;;;;4997455;28;20047;-72
2021/11/24 08:59:11;;;;;;;15.03;8.70;;;7.90;98.20;;;;;;4996235;28;20030;-72
2021/11/24 09:01:38;;;;;;;13.83;8.83;;;7.90;98.10;;;;;;4997391;28;20081;-72
2021/11/24 09:04:05;;;;;;;16.47;10.10;;;7.80;98.10;;;;;;4984334;28;20035;-74
2021/11/24 09:06:31;;;;;;;15.20;8.93;;;7.90;98.10;;;;;;4996066;28;20038;-75
2021/11/24 09:08:56;;;;;;;20.77;9.37;;;7.90;98.00;;;;;;4997262;28;20042;-75
2021/11/24 09:11:22;;;;;;;15.90;9.70;;;8.00;98.00;;;;;;4997206;28;20022;-75
2021/11/24 09:13:48;;;;;;;19.53;10.10;;;8.00;98.00;;;;;;5012686;28;20038;-75
2021/11/24 09:16:14;;;;;;;18.27;9.27;;;8.10;98.00;;;;;;4997114;28;20030;-75
2021/11/24 09:18:40;;;;;;;13.77;9.40;;;8.00;97.90;;;;;;4997187;28;20138;-73
2021/11/24 09:21:06;;;;;;;13.57;9.10;;;8.00;97.90;;;;;;4992829;28;20030;-75
2021/11/24 09:23:31;;;;;;;17.23;9.03;;;8.00;97.90;;;;;;4997211;28;20379;-73
2021/11/24 09:26:14;;;;;;;14.60;8.80;;;8.10;98.20;;;;;;4979617;28;20120;-75
2021/11/24 09:28:40;;;;;;;14.67;9.13;;;8.00;97.90;;;;;;4995755;28;20026;-73
2021/11/24 09:31:06;;;;;;;15.50;9.53;;;8.10;97.90;;;;;;4996887;28;20035;-73
2021/11/24 09:33:34;;;;;;;14.93;10.13;;;8.10;97.90;;;;;;4996886;28;20497;-72
2021/11/24 09:36:00;;;;;;;15.60;9.93;;;8.20;98.00;;;;;;4996830;28;20030;-75
2021/11/24 09:38:25;;;;;;;16.43;10.80;;;8.10;97.90;;;;;;4987622;28;20533;-75
2021/11/24 09:40:54;;;;;;;16.37;10.90;;;8.10;97.90;;;;;;4995244;28;20101;-76
2021/11/24 09:43:20;;;;;;;15.23;9.70;;;8.20;98.00;;;;;;4995316;28;20022;-74
2021/11/24 09:45:47;;;;;;;14.90;9.73;;;8.20;98.00;;;;;;4994720;28;20027;-72
2021/11/24 09:48:19;;;;;;;13.63;8.27;;;8.30;98.10;;;;;;4993663;28;20038;-72
2021/11/24 09:50:47;;;;;;;12.37;8.33;;;8.30;98.10;;;;;;5010964;28;20034;-72
2021/11/24 09:53:14;;;;;;;12.20;7.40;;;8.40;98.20;;;;;;4991632;28;20065;-73
2021/11/24 09:55:40;;;;;;;9.93;6.30;;;8.70;98.60;;;;;;4976304;28;20150;-73
2021/11/24 09:58:07;;;;;;;9.27;6.10;;;8.90;99.10;;;;;;4960018;28;20130;-71
2021/11/24 10:00:36;;;;;;;9.40;5.63;;;9.50;99.90;;;;;;4974939;28;20035;-72
2021/11/24 10:03:03;;;;;;;7.78;4.78;;;10.30;99.90;;;;;;4975786;28;20394;-73
2021/11/24 10:05:30;;;;;;;6.85;3.85;;;10.90;99.90;;;;;;4976761;28;20059;-73
2021/11/24 10:07:56;;;;;;;6.05;3.35;;;11.20;99.90;;;;;;4975679;28;20031;-72
2021/11/24 10:10:22;;;;;;;6.38;3.08;;;11.40;99.40;;;;;;4976562;28;20035;-72
2021/11/24 10:12:48;;;;;;;3.63;1.90;;;11.50;98.80;;;;;;4975611;28;20062;-72
2021/11/24 10:15:41;;;;;;;2.25;0.90;;;11.50;98.30;;;;;;4959708;28;20050;-72
2021/11/24 10:18:33;;;;;;;2.55;0.90;;;11.60;97.60;;;;;;4976882;28;20022;-76
2021/11/24 10:21:02;;;;;;;5.78;1.23;;;11.70;97.10;;;;;;4978184;28;20126;-71
2021/11/24 10:23:35;;;;;;;2.85;1.10;;;11.90;97.10;;;;;;4976936;28;20062;-71
2021/11/24 10:26:27;;;;;;;2.40;1.10;;;12.20;96.70;;;;;;4991455;28;20049;-70
2021/11/24 10:28:56;;;;;;;2.53;1.00;;;12.30;96.10;;;;;;4995215;28;20027;-71
2021/11/24 10:31:33;;;;;;;1.75;1.00;;;12.50;96.20;;;;;;4995736;28;20023;-72
2021/11/24 10:33:59;;;;;;;2.40;1.08;;;12.80;95.90;;;;;;4995302;28;20422;-72
2021/11/24 10:36:27;;;;;;;2.15;1.08;;;13.10;95.60;;;;;;4994576;28;20023;-72
2021/11/24 10:38:53;;;;;;;3.53;1.15;;;13.20;94.70;;;;;;4994566;28;20027;-72
2021/11/24 10:41:36;;;;;;;3.03;1.10;;;13.20;93.90;;;;;;4994497;28;20117;-72
2021/11/24 10:44:03;;;;;;;2.13;0.82;;;13.20;93.30;;;;;;4994849;28;20109;-72
2021/11/24 10:46:30;;;;;;;2.38;0.93;;;13.20;92.80;;;;;;4994608;28;20526;-73
2021/11/24 10:49:09;;;;;;;1.75;0.70;;;13.30;92.70;;;;;;4994453;28;20030;-72
2021/11/24 10:51:43;;;;;;;2.35;0.75;;;13.50;91.50;;;;;;4994402;28;20110;-73
2021/11/24 10:54:18;;;;;;;2.70;1.07;;;13.40;90.20;;;;;;4995661;28;20026;-74
2021/11/24 10:57:05;;;;;;;4.30;2.28;;;13.30;89.90;;;;;;4994286;28;20038;-73
2021/11/24 10:59:37;;;;;;;5.03;2.90;;;13.30;90.20;;;;;;4993831;28;20034;-73
2021/11/24 11:02:23;;;;;;;4.72;2.65;;;13.30;90.00;;;;;;4995399;28;20061;-73
2021/11/24 11:04:59;;;;;;;4.55;2.47;;;13.30;89.70;;;;;;4995191;28;20026;-73
2021/11/24 11:07:26;;;;;;;5.63;2.28;;;13.30;89.60;;;;;;4994235;28;20137;-73
2021/11/24 11:10:01;;;;;;;4.40;2.00;;;13.20;89.10;;;;;;4994103;28;20022;-74
2021/11/24 11:12:30;;;;;;;4.85;2.05;;;13.10;88.50;;;;;;4995116;28;20026;-74
2021/11/24 11:15:17;;;;;;;4.57;2.25;;;13.00;88.10;;;;;;4977549;28;20058;-74
2021/11/24 11:17:56;;;;;;;4.85;2.17;;;12.80;87.40;;;;;;4975824;28;20059;-76
2021/11/24 11:20:24;;;;;;;4.95;2.45;;;12.70;87.20;;;;;;4975684;28;20379;-75
2021/11/24 11:23:11;;;;;;;4.22;2.53;;;12.60;87.00;;;;;;4975302;28;20037;-76
2021/11/24 11:25:46;;;;;;;6.85;3.13;;;12.40;86.50;;;;;;4974478;28;20050;-76
2021/11/24 11:28:13;;;;;;;5.68;2.80;;;12.20;86.20;;;;;;4973920;28;20030;-76
2021/11/24 11:30:43;;;;;;;5.53;2.90;;;12.10;86.30;;;;;;4976484;28;20031;-76
2021/11/24 11:33:10;;;;;;;5.72;2.47;;;12.00;86.30;;;;;;4975598;28;20447;-73
2021/11/24 11:35:36;;;;;;;5.30;2.67;;;11.80;86.40;;;;;;4975101;28;20332;-72
2021/11/24 11:38:02;;;;;;;5.75;2.97;;;11.60;86.70;;;;;;4974788;28;20027;-73
2021/11/24 11:40:28;;;;;;;5.22;2.85;;;11.60;87.00;;;;;;4975256;28;20027;-72
2021/11/24 11:42:58;;;;;;;4.28;2.40;;;11.50;87.10;;;;;;4975412;28;20440;-73
2021/11/24 11:45:30;;;;;;;5.20;2.78;;;11.40;87.10;;;;;;4994091;28;20466;-73
2021/11/24 11:47:57;;;;;;;5.35;2.72;;;11.40;87.30;;;;;;4994723;28;20054;-73
2021/11/24 11:50:45;;;;;;;5.23;2.83;;;11.30;87.50;;;;;;4994626;28;20355;-70
2021/11/24 11:53:22;;;;;;;6.43;3.43;;;11.30;87.70;;;;;;4991649;28;20030;-70
2021/11/24 11:56:27;;;;;;;6.47;2.90;;;11.30;87.90;;;;;;4992913;28;20057;-71
2021/11/24 11:58:58;;;;;;;6.68;3.25;;;11.20;87.90;;;;;;4993193;28;20455;-71
2021/11/24 12:01:29;;;;;;;7.35;3.90;;;11.20;88.00;;;;;;4992922;28;20030;-71
2021/11/24 12:04:09;;;;;;;7.45;3.80;;;11.10;87.80;;;;;;4993098;28;20110;-71
2021/11/24 12:06:45;;;;;;;8.68;3.92;;;11.10;88.00;;;;;;4993166;28;20033;-71
2021/11/24 12:09:35;;;;;;;9.05;5.55;;;11.20;87.80;;;;;;4993255;28;20129;-71
2021/11/24 12:12:04;;;;;;;9.23;5.78;;;11.10;87.80;;;;;;4992579;28;20029;-71
2021/11/24 12:14:45;;;;;;;9.47;5.90;;;11.10;87.80;;;;;;4989399;28;20124;-71
2021/11/24 12:17:32;;;;;;;9.20;5.57;;;11.10;87.80;;;;;;4990808;28;20022;-71
2021/11/24 12:22:59;;;;;;;10.23;6.37;;;11.00;87.90;;;;;;4994270;28;20029;-70
2021/11/24 12:25:28;;;;;;;9.97;5.50;;;11.00;88.00;;;;;;4994230;28;20037;-71
2021/11/24 12:27:53;;;;;;;11.87;6.80;;;11.00;88.10;;;;;;4993875;28;20046;-71
2021/11/24 12:30:37;;;;;;;10.77;6.43;;;10.90;88.20;;;;;;4994063;28;20030;-70
2021/11/24 12:33:12;;;;;;;10.90;6.07;;;10.90;88.40;;;;;;4993223;28;20053;-71
2021/11/24 12:35:50;;;;;;;9.93;6.07;;;10.90;88.60;;;;;;4993790;28;20645;-71
2021/11/24 12:38:17;;;;;;;9.83;5.90;;;10.80;89.10;;;;;;4993857;28;20470;-71
2021/11/24 12:40:45;;;;;;;11.03;6.43;;;10.80;88.50;;;;;;4993864;28;20038;-71
2021/11/24 12:43:17;;;;;;;13.53;7.67;;;10.80;88.80;;;;;;4993582;28;20117;-70
2021/11/24 12:46:12;;;;;;;12.47;7.43;;;10.80;89.60;;;;;;4993686;28;20551;-71
2021/11/24 12:48:48;;;;;;;13.00;7.37;;;10.80;89.10;;;;;;4975598;28;20038;-71
2021/11/24 12:51:32;;;;;;;13.60;8.30;;;10.70;89.00;;;;;;4973023;28;20514;-71
2021/11/24 12:54:02;;;;;;;13.27;7.95;;;10.70;89.00;;;;;;4974276;28;20023;-71